sensor_id;sensor_type;location;lat;lon;timestamp;P1;durP1;ratioP1;P2;durP2;ratioP2
68192;SDS011;55012;47.562;18.414;2022-09-14T00:02:22;6.45;;;3.80;;
68192;SDS011;55012;47.562;18.414;2022-09-14T00:04:47;5.10;;;3.70;;
68192;SDS011;55012;47.562;18.414;2022-09-14T00:07:15;9.90;;;3.88;;
68192;SDS011;55012;47.562;18.414;2022-09-14T00:09:41;6.18;;;3.83;;
68192;SDS011;55012;47.562;18.414;2022-09-14T00:12:08;6.65;;;3.72;;
68192;SDS011;55012;47.562;18.414;2022-09-14T00:14:34;10.20;;;3.85;;
68192;SDS011;55012;47.562;18.414;2022-09-14T00:17:00;5.40;;;3.78;;
68192;SDS011;55012;47.562;18.414;2022-09-14T00:19:26;8.55;;;4.20;;
68192;SDS011;55012;47.562;18.414;2022-09-14T00:21:55;7.35;;;3.85;;
68192;SDS011;55012;47.562;18.414;2022-09-14T00:24:23;8.07;;;3.95;;
68192;SDS011;55012;47.562;18.414;2022-09-14T00:26:50;8.90;;;3.70;;
68192;SDS011;55012;47.562;18.414;2022-09-14T00:29:16;7.63;;;4.10;;
68192;SDS011;55012;47.562;18.414;2022-09-14T00:31:42;9.27;;;4.30;;
68192;SDS011;55012;47.562;18.414;2022-09-14T00:34:10;6.47;;;4.00;;
68192;SDS011;55012;47.562;18.414;2022-09-14T00:36:39;11.70;;;4.07;;
68192;SDS011;55012;47.562;18.414;2022-09-14T00:39:06;6.93;;;4.30;;
68192;SDS011;55012;47.562;18.414;2022-09-14T00:41:33;6.35;;;4.10;;
68192;SDS011;55012;47.562;18.414;2022-09-14T00:44:02;7.60;;;4.20;;
68192;SDS011;55012;47.562;18.414;2022-09-14T00:46:37;6.88;;;4.40;;
68192;SDS011;55012;47.562;18.414;2022-09-14T00:49:28;7.18;;;4.45;;
68192;SDS011;55012;47.562;18.414;2022-09-14T00:52:18;10.60;;;5.35;;
68192;SDS011;55012;47.562;18.414;2022-09-14T00:54:45;8.25;;;4.35;;
68192;SDS011;55012;47.562;18.414;2022-09-14T00:57:14;8.60;;;4.70;;
68192;SDS011;55012;47.562;18.414;2022-09-14T00:59:41;5.65;;;4.18;;
68192;SDS011;55012;47.562;18.414;2022-09-14T01:02:08;8.73;;;4.20;;
68192;SDS011;55012;47.562;18.414;2022-09-14T01:04:35;5.80;;;4.13;;
68192;SDS011;55012;47.562;18.414;2022-09-14T01:10:35;6.63;;;4.22;;
68192;SDS011;55012;47.562;18.414;2022-09-14T01:12:57;6.75;;;4.25;;
68192;SDS011;55012;47.562;18.414;2022-09-14T01:21:04;11.15;;;4.82;;
68192;SDS011;55012;47.562;18.414;2022-09-14T01:29:19;7.00;;;4.40;;
68192;SDS011;55012;47.562;18.414;2022-09-14T01:31:51;6.03;;;4.20;;
68192;SDS011;55012;47.562;18.414;2022-09-14T01:36:58;10.18;;;4.93;;
68192;SDS011;55012;47.562;18.414;2022-09-14T01:39:30;6.43;;;4.70;;
68192;SDS011;55012;47.562;18.414;2022-09-14T01:41:59;8.65;;;4.90;;
68192;SDS011;55012;47.562;18.414;2022-09-14T01:44:28;6.50;;;4.35;;
68192;SDS011;55012;47.562;18.414;2022-09-14T01:47:09;7.22;;;3.95;;
68192;SDS011;55012;47.562;18.414;2022-09-14T01:49:42;7.50;;;4.95;;
68192;SDS011;55012;47.562;18.414;2022-09-14T01:52:15;8.65;;;4.85;;
68192;SDS011;55012;47.562;18.414;2022-09-14T01:54:53;7.22;;;4.60;;
68192;SDS011;55012;47.562;18.414;2022-09-14T01:57:25;8.32;;;4.63;;
68192;SDS011;55012;47.562;18.414;2022-09-14T01:59:57;11.57;;;6.18;;
68192;SDS011;55012;47.562;18.414;2022-09-14T02:05:07;9.75;;;4.75;;
68192;SDS011;55012;47.562;18.414;2022-09-14T02:07:37;14.15;;;4.97;;
68192;SDS011;55012;47.562;18.414;2022-09-14T02:10:07;9.18;;;4.70;;
68192;SDS011;55012;47.562;18.414;2022-09-14T02:12:35;11.20;;;4.18;;
68192;SDS011;55012;47.562;18.414;2022-09-14T02:15:03;7.05;;;4.38;;
68192;SDS011;55012;47.562;18.414;2022-09-14T02:17:29;6.70;;;4.38;;
68192;SDS011;55012;47.562;18.414;2022-09-14T02:19:56;9.85;;;5.18;;
68192;SDS011;55012;47.562;18.414;2022-09-14T02:22:24;8.57;;;4.57;;
68192;SDS011;55012;47.562;18.414;2022-09-14T02:24:52;6.15;;;4.18;;
68192;SDS011;55012;47.562;18.414;2022-09-14T02:27:18;6.40;;;4.00;;
68192;SDS011;55012;47.562;18.414;2022-09-14T02:29:43;8.23;;;4.45;;
68192;SDS011;55012;47.562;18.414;2022-09-14T02:40:37;6.43;;;3.80;;
68192;SDS011;55012;47.562;18.414;2022-09-14T02:43:20;7.68;;;4.38;;
68192;SDS011;55012;47.562;18.414;2022-09-14T02:46:01;8.00;;;4.40;;
68192;SDS011;55012;47.562;18.414;2022-09-14T02:48:47;7.05;;;3.90;;
68192;SDS011;55012;47.562;18.414;2022-09-14T02:51:41;5.57;;;3.92;;
68192;SDS011;55012;47.562;18.414;2022-09-14T02:54:32;5.53;;;3.80;;
68192;SDS011;55012;47.562;18.414;2022-09-14T02:57:03;8.95;;;4.13;;
68192;SDS011;55012;47.562;18.414;2022-09-14T02:59:29;7.30;;;3.83;;
68192;SDS011;55012;47.562;18.414;2022-09-14T03:01:55;7.63;;;4.20;;
68192;SDS011;55012;47.562;18.414;2022-09-14T03:04:22;6.70;;;3.85;;
68192;SDS011;55012;47.562;18.414;2022-09-14T03:06:48;7.75;;;4.18;;
68192;SDS011;55012;47.562;18.414;2022-09-14T03:09:13;5.88;;;4.20;;
68192;SDS011;55012;47.562;18.414;2022-09-14T03:11:39;11.40;;;4.05;;
68192;SDS011;55012;47.562;18.414;2022-09-14T03:14:04;7.78;;;4.13;;
68192;SDS011;55012;47.562;18.414;2022-09-14T03:16:30;7.43;;;3.75;;
68192;SDS011;55012;47.562;18.414;2022-09-14T03:18:56;8.02;;;4.05;;
68192;SDS011;55012;47.562;18.414;2022-09-14T03:21:21;7.28;;;3.90;;
68192;SDS011;55012;47.562;18.414;2022-09-14T03:23:47;10.07;;;4.57;;
68192;SDS011;55012;47.562;18.414;2022-09-14T03:26:17;10.32;;;4.45;;
68192;SDS011;55012;47.562;18.414;2022-09-14T03:28:48;7.82;;;4.60;;
68192;SDS011;55012;47.562;18.414;2022-09-14T03:31:14;9.75;;;4.30;;
68192;SDS011;55012;47.562;18.414;2022-09-14T03:33:41;10.38;;;4.15;;
68192;SDS011;55012;47.562;18.414;2022-09-14T03:36:10;8.20;;;4.05;;
68192;SDS011;55012;47.562;18.414;2022-09-14T03:38:37;11.25;;;4.20;;
68192;SDS011;55012;47.562;18.414;2022-09-14T03:41:09;11.77;;;4.50;;
68192;SDS011;55012;47.562;18.414;2022-09-14T03:43:35;13.02;;;4.40;;
68192;SDS011;55012;47.562;18.414;2022-09-14T03:46:04;8.45;;;4.70;;
68192;SDS011;55012;47.562;18.414;2022-09-14T03:48:31;8.40;;;4.40;;
68192;SDS011;55012;47.562;18.414;2022-09-14T03:50:58;8.30;;;4.47;;
68192;SDS011;55012;47.562;18.414;2022-09-14T03:53:27;6.53;;;4.35;;
68192;SDS011;55012;47.562;18.414;2022-09-14T03:55:52;14.73;;;4.50;;
68192;SDS011;55012;47.562;18.414;2022-09-14T03:58:17;12.07;;;4.80;;
68192;SDS011;55012;47.562;18.414;2022-09-14T04:00:43;8.35;;;4.40;;
68192;SDS011;55012;47.562;18.414;2022-09-14T04:03:09;9.93;;;4.60;;
68192;SDS011;55012;47.562;18.414;2022-09-14T04:05:34;6.15;;;4.20;;
68192;SDS011;55012;47.562;18.414;2022-09-14T04:08:00;10.38;;;4.72;;
68192;SDS011;55012;47.562;18.414;2022-09-14T04:10:26;7.80;;;4.75;;
68192;SDS011;55012;47.562;18.414;2022-09-14T04:12:51;7.63;;;4.50;;
68192;SDS011;55012;47.562;18.414;2022-09-14T04:15:17;10.65;;;4.93;;
68192;SDS011;55012;47.562;18.414;2022-09-14T04:17:42;6.63;;;4.90;;
68192;SDS011;55012;47.562;18.414;2022-09-14T04:20:08;8.40;;;4.55;;
68192;SDS011;55012;47.562;18.414;2022-09-14T04:22:33;6.88;;;4.72;;
68192;SDS011;55012;47.562;18.414;2022-09-14T04:24:59;7.82;;;4.65;;
68192;SDS011;55012;47.562;18.414;2022-09-14T04:27:24;9.85;;;4.75;;
68192;SDS011;55012;47.562;18.414;2022-09-14T04:29:50;10.20;;;5.00;;
68192;SDS011;55012;47.562;18.414;2022-09-14T04:32:15;9.57;;;5.00;;
68192;SDS011;55012;47.562;18.414;2022-09-14T04:34:41;8.32;;;4.50;;
68192;SDS011;55012;47.562;18.414;2022-09-14T04:37:07;10.38;;;4.90;;
68192;SDS011;55012;47.562;18.414;2022-09-14T04:39:32;10.10;;;4.82;;
68192;SDS011;55012;47.562;18.414;2022-09-14T04:41:58;8.00;;;4.85;;
68192;SDS011;55012;47.562;18.414;2022-09-14T04:44:24;9.63;;;4.97;;
68192;SDS011;55012;47.562;18.414;2022-09-14T04:46:49;7.10;;;4.72;;
68192;SDS011;55012;47.562;18.414;2022-09-14T04:49:15;8.43;;;5.40;;
68192;SDS011;55012;47.562;18.414;2022-09-14T04:51:43;10.43;;;5.13;;
68192;SDS011;55012;47.562;18.414;2022-09-14T04:54:11;7.78;;;4.88;;
68192;SDS011;55012;47.562;18.414;2022-09-14T04:56:38;11.80;;;5.00;;
68192;SDS011;55012;47.562;18.414;2022-09-14T04:59:04;7.82;;;4.82;;
68192;SDS011;55012;47.562;18.414;2022-09-14T05:01:33;9.73;;;5.00;;
68192;SDS011;55012;47.562;18.414;2022-09-14T05:04:01;11.77;;;5.10;;
68192;SDS011;55012;47.562;18.414;2022-09-14T05:06:30;10.15;;;5.07;;
68192;SDS011;55012;47.562;18.414;2022-09-14T05:08:57;7.22;;;5.38;;
68192;SDS011;55012;47.562;18.414;2022-09-14T05:11:31;8.13;;;4.70;;
68192;SDS011;55012;47.562;18.414;2022-09-14T05:13:58;9.80;;;4.80;;
68192;SDS011;55012;47.562;18.414;2022-09-14T05:16:34;8.35;;;4.90;;
68192;SDS011;55012;47.562;18.414;2022-09-14T05:19:03;10.35;;;5.60;;
68192;SDS011;55012;47.562;18.414;2022-09-14T05:21:31;13.25;;;5.15;;
68192;SDS011;55012;47.562;18.414;2022-09-14T05:24:01;12.10;;;5.15;;
68192;SDS011;55012;47.562;18.414;2022-09-14T05:26:32;9.68;;;4.60;;
68192;SDS011;55012;47.562;18.414;2022-09-14T05:28:58;8.90;;;4.90;;
68192;SDS011;55012;47.562;18.414;2022-09-14T05:31:25;11.13;;;5.60;;
68192;SDS011;55012;47.562;18.414;2022-09-14T05:33:52;9.02;;;4.95;;
68192;SDS011;55012;47.562;18.414;2022-09-14T05:36:18;8.15;;;4.82;;
68192;SDS011;55012;47.562;18.414;2022-09-14T05:38:44;9.80;;;4.88;;
68192;SDS011;55012;47.562;18.414;2022-09-14T05:41:10;12.85;;;5.15;;
68192;SDS011;55012;47.562;18.414;2022-09-14T05:43:37;9.05;;;4.95;;
68192;SDS011;55012;47.562;18.414;2022-09-14T05:46:09;13.95;;;5.47;;
68192;SDS011;55012;47.562;18.414;2022-09-14T05:48:36;10.02;;;4.80;;
68192;SDS011;55012;47.562;18.414;2022-09-14T05:51:03;12.38;;;5.43;;
68192;SDS011;55012;47.562;18.414;2022-09-14T05:53:31;10.52;;;4.90;;
68192;SDS011;55012;47.562;18.414;2022-09-14T05:55:58;7.20;;;4.93;;
68192;SDS011;55012;47.562;18.414;2022-09-14T05:58:25;6.10;;;4.45;;
68192;SDS011;55012;47.562;18.414;2022-09-14T06:00:51;8.15;;;4.97;;
68192;SDS011;55012;47.562;18.414;2022-09-14T06:03:16;7.32;;;4.88;;
68192;SDS011;55012;47.562;18.414;2022-09-14T06:05:42;12.38;;;5.22;;
68192;SDS011;55012;47.562;18.414;2022-09-14T06:08:07;7.30;;;4.60;;
68192;SDS011;55012;47.562;18.414;2022-09-14T06:10:33;7.50;;;5.10;;
68192;SDS011;55012;47.562;18.414;2022-09-14T06:12:58;8.73;;;5.00;;
68192;SDS011;55012;47.562;18.414;2022-09-14T06:15:24;6.05;;;4.55;;
68192;SDS011;55012;47.562;18.414;2022-09-14T06:17:49;12.55;;;7.03;;
68192;SDS011;55012;47.562;18.414;2022-09-14T06:20:15;9.23;;;5.00;;
68192;SDS011;55012;47.562;18.414;2022-09-14T06:22:42;8.52;;;4.93;;
68192;SDS011;55012;47.562;18.414;2022-09-14T06:25:08;11.02;;;5.18;;
68192;SDS011;55012;47.562;18.414;2022-09-14T06:27:35;9.77;;;5.38;;
68192;SDS011;55012;47.562;18.414;2022-09-14T06:30:02;7.10;;;5.07;;
68192;SDS011;55012;47.562;18.414;2022-09-14T06:32:28;8.77;;;5.35;;
68192;SDS011;55012;47.562;18.414;2022-09-14T06:34:55;9.00;;;5.35;;
68192;SDS011;55012;47.562;18.414;2022-09-14T06:37:20;15.57;;;5.88;;
68192;SDS011;55012;47.562;18.414;2022-09-14T06:39:46;35.33;;;8.77;;
68192;SDS011;55012;47.562;18.414;2022-09-14T06:42:11;21.48;;;9.85;;
68192;SDS011;55012;47.562;18.414;2022-09-14T06:44:37;38.28;;;16.90;;
68192;SDS011;55012;47.562;18.414;2022-09-14T06:47:02;39.42;;;19.98;;
68192;SDS011;55012;47.562;18.414;2022-09-14T06:49:28;26.10;;;14.00;;
68192;SDS011;55012;47.562;18.414;2022-09-14T06:51:54;15.32;;;9.32;;
68192;SDS011;55012;47.562;18.414;2022-09-14T06:54:21;14.60;;;7.97;;
68192;SDS011;55012;47.562;18.414;2022-09-14T06:56:47;13.63;;;8.18;;
68192;SDS011;55012;47.562;18.414;2022-09-14T06:59:13;17.02;;;10.50;;
68192;SDS011;55012;47.562;18.414;2022-09-14T07:01:40;21.63;;;11.00;;
68192;SDS011;55012;47.562;18.414;2022-09-14T07:04:06;20.60;;;11.98;;
68192;SDS011;55012;47.562;18.414;2022-09-14T07:06:36;29.00;;;14.20;;
68192;SDS011;55012;47.562;18.414;2022-09-14T07:09:04;38.17;;;16.73;;
68192;SDS011;55012;47.562;18.414;2022-09-14T07:11:30;37.10;;;16.75;;
68192;SDS011;55012;47.562;18.414;2022-09-14T07:13:56;22.38;;;10.82;;
68192;SDS011;55012;47.562;18.414;2022-09-14T07:16:26;18.08;;;9.52;;
68192;SDS011;55012;47.562;18.414;2022-09-14T07:18:53;28.88;;;12.25;;
68192;SDS011;55012;47.562;18.414;2022-09-14T07:21:20;48.38;;;20.95;;
68192;SDS011;55012;47.562;18.414;2022-09-14T07:23:46;33.75;;;16.15;;
68192;SDS011;55012;47.562;18.414;2022-09-14T07:26:19;25.90;;;12.30;;
68192;SDS011;55012;47.562;18.414;2022-09-14T07:28:47;27.52;;;14.18;;
68192;SDS011;55012;47.562;18.414;2022-09-14T07:33:52;11.23;;;6.90;;
68192;SDS011;55012;47.562;18.414;2022-09-14T07:36:19;10.65;;;7.03;;
68192;SDS011;55012;47.562;18.414;2022-09-14T07:38:45;20.05;;;12.35;;
68192;SDS011;55012;47.562;18.414;2022-09-14T07:41:11;17.67;;;8.45;;
68192;SDS011;55012;47.562;18.414;2022-09-14T07:43:36;15.32;;;7.22;;
68192;SDS011;55012;47.562;18.414;2022-09-14T07:46:02;15.50;;;9.43;;
68192;SDS011;55012;47.562;18.414;2022-09-14T07:48:29;11.57;;;7.03;;
68192;SDS011;55012;47.562;18.414;2022-09-14T07:51:03;12.02;;;6.75;;
68192;SDS011;55012;47.562;18.414;2022-09-14T07:53:30;13.57;;;6.60;;
68192;SDS011;55012;47.562;18.414;2022-09-14T07:55:57;16.10;;;6.80;;
68192;SDS011;55012;47.562;18.414;2022-09-14T07:58:24;17.77;;;6.82;;
68192;SDS011;55012;47.562;18.414;2022-09-14T08:00:51;12.50;;;6.60;;
68192;SDS011;55012;47.562;18.414;2022-09-14T08:03:16;11.88;;;6.97;;
68192;SDS011;55012;47.562;18.414;2022-09-14T08:05:42;10.20;;;6.38;;
68192;SDS011;55012;47.562;18.414;2022-09-14T08:08:07;13.68;;;7.15;;
68192;SDS011;55012;47.562;18.414;2022-09-14T08:10:33;14.55;;;6.80;;
68192;SDS011;55012;47.562;18.414;2022-09-14T08:12:59;12.43;;;6.90;;
68192;SDS011;55012;47.562;18.414;2022-09-14T08:15:25;11.00;;;6.60;;
68192;SDS011;55012;47.562;18.414;2022-09-14T08:17:52;11.90;;;6.80;;
68192;SDS011;55012;47.562;18.414;2022-09-14T08:20:17;15.35;;;6.43;;
68192;SDS011;55012;47.562;18.414;2022-09-14T08:22:43;10.70;;;6.10;;
68192;SDS011;55012;47.562;18.414;2022-09-14T08:25:09;10.57;;;6.13;;
68192;SDS011;55012;47.562;18.414;2022-09-14T08:27:35;8.93;;;6.20;;
68192;SDS011;55012;47.562;18.414;2022-09-14T08:30:01;8.88;;;6.50;;
68192;SDS011;55012;47.562;18.414;2022-09-14T08:32:26;13.10;;;7.13;;
68192;SDS011;55012;47.562;18.414;2022-09-14T08:34:52;11.48;;;6.25;;
68192;SDS011;55012;47.562;18.414;2022-09-14T08:37:18;14.27;;;6.38;;
68192;SDS011;55012;47.562;18.414;2022-09-14T08:39:43;9.60;;;6.10;;
68192;SDS011;55012;47.562;18.414;2022-09-14T08:42:14;13.13;;;6.45;;
68192;SDS011;55012;47.562;18.414;2022-09-14T08:44:44;19.70;;;11.10;;
68192;SDS011;55012;47.562;18.414;2022-09-14T08:47:18;20.85;;;13.18;;
68192;SDS011;55012;47.562;18.414;2022-09-14T08:49:55;15.35;;;9.25;;
68192;SDS011;55012;47.562;18.414;2022-09-14T08:52:55;25.35;;;13.77;;
68192;SDS011;55012;47.562;18.414;2022-09-14T08:55:34;8.85;;;5.65;;
68192;SDS011;55012;47.562;18.414;2022-09-14T09:08:48;12.80;;;6.10;;
68192;SDS011;55012;47.562;18.414;2022-09-14T09:11:50;11.68;;;5.97;;
68192;SDS011;55012;47.562;18.414;2022-09-14T09:14:18;12.98;;;5.60;;
68192;SDS011;55012;47.562;18.414;2022-09-14T09:16:49;10.73;;;5.25;;
68192;SDS011;55012;47.562;18.414;2022-09-14T09:19:18;7.93;;;5.50;;
68192;SDS011;55012;47.562;18.414;2022-09-14T09:21:48;16.35;;;5.93;;
68192;SDS011;55012;47.562;18.414;2022-09-14T09:24:36;9.65;;;5.50;;
68192;SDS011;55012;47.562;18.414;2022-09-14T09:27:12;13.48;;;5.57;;
68192;SDS011;55012;47.562;18.414;2022-09-14T09:29:39;13.32;;;6.03;;
68192;SDS011;55012;47.562;18.414;2022-09-14T09:32:06;24.42;;;8.45;;
68192;SDS011;55012;47.562;18.414;2022-09-14T09:34:34;20.75;;;7.18;;
68192;SDS011;55012;47.562;18.414;2022-09-14T09:37:00;14.45;;;5.75;;
68192;SDS011;55012;47.562;18.414;2022-09-14T09:39:28;15.35;;;5.78;;
68192;SDS011;55012;47.562;18.414;2022-09-14T09:42:00;14.60;;;9.23;;
68192;SDS011;55012;47.562;18.414;2022-09-14T09:44:30;15.52;;;6.82;;
68192;SDS011;55012;47.562;18.414;2022-09-14T09:47:32;11.48;;;5.78;;
68192;SDS011;55012;47.562;18.414;2022-09-14T09:50:15;19.33;;;6.72;;
68192;SDS011;55012;47.562;18.414;2022-09-14T09:52:53;13.82;;;7.50;;
68192;SDS011;55012;47.562;18.414;2022-09-14T09:55:22;19.35;;;7.85;;
68192;SDS011;55012;47.562;18.414;2022-09-14T09:57:52;18.77;;;7.43;;
68192;SDS011;55012;47.562;18.414;2022-09-14T10:02:46;12.05;;;5.25;;
68192;SDS011;55012;47.562;18.414;2022-09-14T10:07:54;15.30;;;6.20;;
68192;SDS011;55012;47.562;18.414;2022-09-14T10:10:45;16.92;;;6.68;;
68192;SDS011;55012;47.562;18.414;2022-09-14T10:16:15;11.93;;;5.40;;
68192;SDS011;55012;47.562;18.414;2022-09-14T10:21:08;9.88;;;5.63;;
68192;SDS011;55012;47.562;18.414;2022-09-14T10:23:37;8.52;;;4.80;;
68192;SDS011;55012;47.562;18.414;2022-09-14T10:31:12;8.52;;;4.60;;
68192;SDS011;55012;47.562;18.414;2022-09-14T10:33:43;9.68;;;4.63;;
68192;SDS011;55012;47.562;18.414;2022-09-14T10:49:50;8.02;;;4.80;;
68192;SDS011;55012;47.562;18.414;2022-09-14T10:55:31;4.97;;;4.40;;
68192;SDS011;55012;47.562;18.414;2022-09-14T10:58:27;7.32;;;4.88;;
68192;SDS011;55012;47.562;18.414;2022-09-14T11:06:15;5.60;;;4.47;;
68192;SDS011;55012;47.562;18.414;2022-09-14T11:09:04;8.45;;;4.93;;
68192;SDS011;55012;47.562;18.414;2022-09-14T11:14:46;7.30;;;4.70;;
68192;SDS011;55012;47.562;18.414;2022-09-14T11:25:44;6.13;;;4.30;;
68192;SDS011;55012;47.562;18.414;2022-09-14T11:28:15;7.40;;;4.10;;
68192;SDS011;55012;47.562;18.414;2022-09-14T11:30:49;7.22;;;4.30;;
68192;SDS011;55012;47.562;18.414;2022-09-14T11:33:21;9.40;;;4.30;;
68192;SDS011;55012;47.562;18.414;2022-09-14T11:35:56;7.78;;;4.45;;
68192;SDS011;55012;47.562;18.414;2022-09-14T11:38:29;7.20;;;4.55;;
68192;SDS011;55012;47.562;18.414;2022-09-14T11:41:00;15.98;;;6.40;;
68192;SDS011;55012;47.562;18.414;2022-09-14T11:46:12;10.05;;;5.70;;
68192;SDS011;55012;47.562;18.414;2022-09-14T11:51:45;7.03;;;4.20;;
68192;SDS011;55012;47.562;18.414;2022-09-14T11:54:18;6.13;;;3.90;;
68192;SDS011;55012;47.562;18.414;2022-09-14T11:56:56;7.82;;;4.15;;
68192;SDS011;55012;47.562;18.414;2022-09-14T12:10:21;6.32;;;4.15;;
68192;SDS011;55012;47.562;18.414;2022-09-14T12:15:31;6.88;;;3.67;;
68192;SDS011;55012;47.562;18.414;2022-09-14T12:26:42;5.60;;;3.90;;
68192;SDS011;55012;47.562;18.414;2022-09-14T12:28:46;8.18;;;3.92;;
68192;SDS011;55012;47.562;18.414;2022-09-14T12:39:24;5.95;;;3.95;;
68192;SDS011;55012;47.562;18.414;2022-09-14T12:44:28;4.63;;;3.90;;
68192;SDS011;55012;47.562;18.414;2022-09-14T12:50:10;8.38;;;4.00;;
68192;SDS011;55012;47.562;18.414;2022-09-14T12:52:50;5.07;;;4.00;;
68192;SDS011;55012;47.562;18.414;2022-09-14T12:55:52;4.30;;;3.70;;
68192;SDS011;55012;47.562;18.414;2022-09-14T13:01:35;6.28;;;3.80;;
68192;SDS011;55012;47.562;18.414;2022-09-14T13:04:30;5.57;;;3.88;;
68192;SDS011;55012;47.562;18.414;2022-09-14T13:06:56;6.97;;;3.92;;
68192;SDS011;55012;47.562;18.414;2022-09-14T13:09:26;9.68;;;7.13;;
68192;SDS011;55012;47.562;18.414;2022-09-14T13:12:09;8.30;;;4.65;;
68192;SDS011;55012;47.562;18.414;2022-09-14T13:14:39;6.63;;;4.80;;
68192;SDS011;55012;47.562;18.414;2022-09-14T13:17:12;8.07;;;4.60;;
68192;SDS011;55012;47.562;18.414;2022-09-14T13:19:41;6.95;;;4.50;;
68192;SDS011;55012;47.562;18.414;2022-09-14T13:25:16;5.50;;;4.00;;
68192;SDS011;55012;47.562;18.414;2022-09-14T13:27:58;5.97;;;4.30;;
68192;SDS011;55012;47.562;18.414;2022-09-14T13:30:29;6.95;;;4.82;;
68192;SDS011;55012;47.562;18.414;2022-09-14T13:32:56;8.88;;;4.57;;
68192;SDS011;55012;47.562;18.414;2022-09-14T13:35:29;7.80;;;4.78;;
68192;SDS011;55012;47.562;18.414;2022-09-14T13:38:03;6.18;;;5.47;;
68192;SDS011;55012;47.562;18.414;2022-09-14T13:40:32;7.13;;;5.17;;
68192;SDS011;55012;47.562;18.414;2022-09-14T13:42:58;8.95;;;5.30;;
68192;SDS011;55012;47.562;18.414;2022-09-14T13:45:24;7.43;;;5.20;;
68192;SDS011;55012;47.562;18.414;2022-09-14T13:47:50;10.80;;;5.78;;
68192;SDS011;55012;47.562;18.414;2022-09-14T13:50:17;14.63;;;10.90;;
68192;SDS011;55012;47.562;18.414;2022-09-14T13:52:44;16.23;;;10.60;;
68192;SDS011;55012;47.562;18.414;2022-09-14T14:00:33;8.70;;;5.03;;
68192;SDS011;55012;47.562;18.414;2022-09-14T14:03:17;7.28;;;4.57;;
68192;SDS011;55012;47.562;18.414;2022-09-14T14:06:15;7.78;;;4.50;;
68192;SDS011;55012;47.562;18.414;2022-09-14T14:08:42;6.45;;;4.90;;
68192;SDS011;55012;47.562;18.414;2022-09-14T14:11:07;6.30;;;4.63;;
68192;SDS011;55012;47.562;18.414;2022-09-14T14:13:36;8.98;;;4.18;;
68192;SDS011;55012;47.562;18.414;2022-09-14T14:18:42;8.65;;;4.30;;
68192;SDS011;55012;47.562;18.414;2022-09-14T14:21:14;9.32;;;5.15;;
68192;SDS011;55012;47.562;18.414;2022-09-14T14:23:46;11.90;;;7.63;;
68192;SDS011;55012;47.562;18.414;2022-09-14T14:26:13;5.45;;;4.10;;
68192;SDS011;55012;47.562;18.414;2022-09-14T14:28:42;6.95;;;4.00;;
68192;SDS011;55012;47.562;18.414;2022-09-14T14:31:12;5.20;;;3.30;;
68192;SDS011;55012;47.562;18.414;2022-09-14T14:33:43;5.38;;;3.55;;
68192;SDS011;55012;47.562;18.414;2022-09-14T14:36:11;5.53;;;3.20;;
68192;SDS011;55012;47.562;18.414;2022-09-14T14:38:39;7.65;;;3.20;;
68192;SDS011;55012;47.562;18.414;2022-09-14T14:41:16;10.23;;;3.42;;
68192;SDS011;55012;47.562;18.414;2022-09-14T14:43:45;5.05;;;3.20;;
68192;SDS011;55012;47.562;18.414;2022-09-14T14:46:14;9.48;;;3.83;;
68192;SDS011;55012;47.562;18.414;2022-09-14T14:48:40;6.57;;;3.10;;
68192;SDS011;55012;47.562;18.414;2022-09-14T14:51:08;6.10;;;3.40;;
68192;SDS011;55012;47.562;18.414;2022-09-14T14:53:38;6.55;;;3.10;;
68192;SDS011;55012;47.562;18.414;2022-09-14T14:56:04;6.53;;;2.75;;
68192;SDS011;55012;47.562;18.414;2022-09-14T14:58:29;5.25;;;2.88;;
68192;SDS011;55012;47.562;18.414;2022-09-14T15:00:55;5.05;;;2.60;;
68192;SDS011;55012;47.562;18.414;2022-09-14T15:03:21;4.55;;;2.70;;
68192;SDS011;55012;47.562;18.414;2022-09-14T15:05:47;4.25;;;2.75;;
68192;SDS011;55012;47.562;18.414;2022-09-14T15:08:14;4.97;;;2.90;;
68192;SDS011;55012;47.562;18.414;2022-09-14T15:10:41;11.35;;;6.38;;
68192;SDS011;55012;47.562;18.414;2022-09-14T15:13:07;5.78;;;2.67;;
68192;SDS011;55012;47.562;18.414;2022-09-14T15:15:34;6.97;;;3.20;;
68192;SDS011;55012;47.562;18.414;2022-09-14T15:18:00;4.55;;;2.90;;
68192;SDS011;55012;47.562;18.414;2022-09-14T15:20:26;8.50;;;2.85;;
68192;SDS011;55012;47.562;18.414;2022-09-14T15:22:52;7.70;;;4.45;;
68192;SDS011;55012;47.562;18.414;2022-09-14T15:25:18;4.93;;;2.90;;
68192;SDS011;55012;47.562;18.414;2022-09-14T15:27:45;5.68;;;3.30;;
68192;SDS011;55012;47.562;18.414;2022-09-14T15:30:11;6.55;;;3.38;;
68192;SDS011;55012;47.562;18.414;2022-09-14T15:32:37;3.55;;;3.13;;
68192;SDS011;55012;47.562;18.414;2022-09-14T15:35:04;5.72;;;3.13;;
68192;SDS011;55012;47.562;18.414;2022-09-14T15:37:31;4.25;;;3.15;;
68192;SDS011;55012;47.562;18.414;2022-09-14T15:39:56;6.78;;;3.10;;
68192;SDS011;55012;47.562;18.414;2022-09-14T15:42:22;3.72;;;2.90;;
68192;SDS011;55012;47.562;18.414;2022-09-14T15:44:48;5.88;;;3.70;;
68192;SDS011;55012;47.562;18.414;2022-09-14T15:47:17;4.18;;;2.90;;
68192;SDS011;55012;47.562;18.414;2022-09-14T15:49:42;8.25;;;3.58;;
68192;SDS011;55012;47.562;18.414;2022-09-14T15:52:08;6.25;;;3.17;;
68192;SDS011;55012;47.562;18.414;2022-09-14T15:54:35;4.60;;;3.00;;
68192;SDS011;55012;47.562;18.414;2022-09-14T15:57:02;7.65;;;2.78;;
68192;SDS011;55012;47.562;18.414;2022-09-14T15:59:30;6.60;;;2.88;;
68192;SDS011;55012;47.562;18.414;2022-09-14T16:01:56;5.38;;;3.28;;
68192;SDS011;55012;47.562;18.414;2022-09-14T16:04:22;4.05;;;2.58;;
68192;SDS011;55012;47.562;18.414;2022-09-14T16:06:47;4.72;;;3.00;;
68192;SDS011;55012;47.562;18.414;2022-09-14T16:09:14;6.40;;;2.90;;
68192;SDS011;55012;47.562;18.414;2022-09-14T16:11:40;5.05;;;2.80;;
68192;SDS011;55012;47.562;18.414;2022-09-14T16:14:07;5.15;;;3.22;;
68192;SDS011;55012;47.562;18.414;2022-09-14T16:16:34;5.00;;;2.85;;
68192;SDS011;55012;47.562;18.414;2022-09-14T16:19:08;5.15;;;3.30;;
68192;SDS011;55012;47.562;18.414;2022-09-14T16:21:36;5.75;;;3.72;;
68192;SDS011;55012;47.562;18.414;2022-09-14T16:24:03;5.57;;;4.00;;
68192;SDS011;55012;47.562;18.414;2022-09-14T16:26:33;7.57;;;4.18;;
68192;SDS011;55012;47.562;18.414;2022-09-14T16:29:00;11.85;;;8.75;;
68192;SDS011;55012;47.562;18.414;2022-09-14T16:31:33;11.80;;;8.23;;
68192;SDS011;55012;47.562;18.414;2022-09-14T16:34:02;10.00;;;7.57;;
68192;SDS011;55012;47.562;18.414;2022-09-14T16:36:30;8.98;;;5.93;;
68192;SDS011;55012;47.562;18.414;2022-09-14T16:38:58;10.18;;;6.68;;
68192;SDS011;55012;47.562;18.414;2022-09-14T16:41:25;9.38;;;4.13;;
68192;SDS011;55012;47.562;18.414;2022-09-14T16:43:55;5.82;;;4.00;;
68192;SDS011;55012;47.562;18.414;2022-09-14T16:46:24;6.25;;;3.88;;
68192;SDS011;55012;47.562;18.414;2022-09-14T16:48:50;13.98;;;9.02;;
68192;SDS011;55012;47.562;18.414;2022-09-14T16:51:18;17.48;;;9.35;;
68192;SDS011;55012;47.562;18.414;2022-09-14T16:53:46;15.77;;;10.80;;
68192;SDS011;55012;47.562;18.414;2022-09-14T16:56:34;13.27;;;8.85;;
68192;SDS011;55012;47.562;18.414;2022-09-14T16:59:00;17.67;;;9.77;;
68192;SDS011;55012;47.562;18.414;2022-09-14T17:01:30;18.67;;;10.77;;
68192;SDS011;55012;47.562;18.414;2022-09-14T17:04:00;28.27;;;15.15;;
68192;SDS011;55012;47.562;18.414;2022-09-14T17:06:34;26.25;;;14.20;;
68192;SDS011;55012;47.562;18.414;2022-09-14T17:09:06;17.00;;;9.18;;